Bradford, Massachusetts
Current Conditions -  °F | °C
As of 10:54 PM on Friday 31 Oct 2014 (Local Time) from KLWM Reporting Station
Scattered Clouds Scattered Clouds  
Wind Chill: 38°   Ceiling: Unl
Heat Index: 42°   Visibility: 10mi
Dew Point: 35°   Wind: 6mph
Humidity: 76%   Direction: 10°N
Pressure: 30.02"   Gusts: NA
Location:  42.7512°N, 71.0864°W
Report Text: KLWM 010254Z 01005KT 10SM SCT055 06/02 A3002 RMK AO2 SLP165 T00560017 55008
Loading
Personal Weather Stations






























Interactive Weather Map
Tropical Storm Tracking
New forecast layout! Learn more

10-Day Weather Forecast

Advertisements
Track Severe Weather on mobile